Breckenridge, TX (76424)

11:22 PM CDT on September 01, 2014 (GMT -0500)
Stephens County | Change Station
CLOSE
Current Station
Airport
Location: Breckenridge,
Elevation: 1283 ft
Nearby Weather Stations

Elev 1283 ft 32.72 °N, 98.89 °W | Updated 27 minutes ago

Clear
Clear
89 °F
Feels Like 89 °F
N
12
Wind Variable Wind from SSE
Gusts 20 mph

Today
High -- | Low -- °F
--% Chance of Precip.
Yesterday
High -- | Low -- °F
Precip. -- in
7:10 AM 8:00 PM
Waxing Crescent, 47% visible
Pressure 29.85 in
Visibility 7.0 miles
Clouds Clear
Heat Index 89 °F
Dew Point 63 °F
Humidity 42%
Rainfall 0.00 in
Snow Depth Not available.
UV 0 out of 12
Pollen 10.90 out of 12
Air Quality Not available.
Flu Activity Not available.
METAR KBKD 020355Z AUTO 16010G17KT 7SM CLR 32/17 A2985 RMK AO2 T03150170

More Conditions Fewer Conditions

Pressure 29.85 in
Visibility 7.0 miles
Clouds Clear
Heat Index 89 °F
Dew Point 63 °F
Humidity 42%
Rainfall 0.00 in
Snow Depth Not available.
UV 0 out of 12
Pollen 10.90 out of 12
Air Quality Not available.
Flu Activity Not available.
METAR KBKD 020355Z AUTO 16010G17KT 7SM CLR 32/17 A2985 RMK AO2 T03150170

More Conditions Fewer Conditions

10-Day Weather Forecast

Almanac

Astronomy

Sep. 01, 2014 Rise Set
Actual Time 7:10 AM CDT 8:00 PM CDT
Civil Twilight 6:45 AM CDT 8:25 PM CDT
Nautical Twilight 6:15 AM CDT 8:54 PM CDT
Astronomical Twilight 5:45 AM CDT 9:25 PM CDT
Moon 1:35 PM CDT (9/1) No Moon Set
Length of Visible Light 13h 40m
Length of Day
12h 49m
Tomorrow will be 1m 56s shorter.
Waxing Crescent, 47% of the Moon is Illuminated
Sep 2
Waxing Crescent
Sep 2
First Quarter
Sep 8
Full
Sep 15
Last Quarter
Sep 24
New

Today's Extremes

State Highs State Lows

Community

WunderPhotos

Upload Photos

1,749,560 photos uploaded!

WunderBlogs® & News

Nearby

Snow Depth

Station Depth Elevation
No new snow has been reported.

Earthquake Activity

City Distance Mag. Time & Date
No recent earthquake activity has been reported nearby.
Minimum magnitude displayed is 2.5.

Coastal Water Temperatures

Place Temperature
No Stations Reporting

Nearby Weather Stations